sensor_id;sensor_type;location;lat;lon;timestamp;P1;durP1;ratioP1;P2;durP2;ratioP2
55537;SDS011;41383;51.418;7.286;2023-05-07T00:00:45;16.17;;;8.57;;
55537;SDS011;41383;51.418;7.286;2023-05-07T00:03:10;13.98;;;6.47;;
55537;SDS011;41383;51.418;7.286;2023-05-07T00:05:36;14.50;;;7.53;;
55537;SDS011;41383;51.418;7.286;2023-05-07T00:08:02;9.73;;;6.93;;
55537;SDS011;41383;51.418;7.286;2023-05-07T00:10:28;19.35;;;7.50;;
55537;SDS011;41383;51.418;7.286;2023-05-07T00:12:53;12.02;;;6.72;;
55537;SDS011;41383;51.418;7.286;2023-05-07T00:15:19;12.43;;;7.15;;
55537;SDS011;41383;51.418;7.286;2023-05-07T00:17:44;12.27;;;7.88;;
55537;SDS011;41383;51.418;7.286;2023-05-07T00:20:10;13.13;;;7.33;;
55537;SDS011;41383;51.418;7.286;2023-05-07T00:22:35;11.48;;;6.50;;
55537;SDS011;41383;51.418;7.286;2023-05-07T00:25:00;16.55;;;7.50;;
55537;SDS011;41383;51.418;7.286;2023-05-07T00:27:26;14.40;;;7.35;;
55537;SDS011;41383;51.418;7.286;2023-05-07T00:29:51;20.27;;;7.60;;
55537;SDS011;41383;51.418;7.286;2023-05-07T00:32:16;17.63;;;8.10;;
55537;SDS011;41383;51.418;7.286;2023-05-07T00:34:42;14.25;;;8.02;;
55537;SDS011;41383;51.418;7.286;2023-05-07T00:37:08;16.38;;;7.82;;
55537;SDS011;41383;51.418;7.286;2023-05-07T00:39:33;13.65;;;7.93;;
55537;SDS011;41383;51.418;7.286;2023-05-07T00:41:59;14.27;;;8.63;;
55537;SDS011;41383;51.418;7.286;2023-05-07T00:44:25;14.48;;;7.78;;
55537;SDS011;41383;51.418;7.286;2023-05-07T00:46:51;15.60;;;7.63;;
55537;SDS011;41383;51.418;7.286;2023-05-07T00:49:16;16.60;;;9.07;;
55537;SDS011;41383;51.418;7.286;2023-05-07T00:51:43;12.95;;;7.80;;
55537;SDS011;41383;51.418;7.286;2023-05-07T00:54:09;12.35;;;7.90;;
55537;SDS011;41383;51.418;7.286;2023-05-07T00:56:35;15.25;;;6.88;;
55537;SDS011;41383;51.418;7.286;2023-05-07T00:59:01;16.95;;;8.27;;
55537;SDS011;41383;51.418;7.286;2023-05-07T01:01:27;13.82;;;7.32;;
55537;SDS011;41383;51.418;7.286;2023-05-07T01:03:53;14.82;;;7.65;;
55537;SDS011;41383;51.418;7.286;2023-05-07T01:06:18;13.93;;;7.57;;
55537;SDS011;41383;51.418;7.286;2023-05-07T01:08:46;15.05;;;8.85;;
55537;SDS011;41383;51.418;7.286;2023-05-07T01:11:12;13.80;;;8.52;;
55537;SDS011;41383;51.418;7.286;2023-05-07T01:13:38;13.60;;;8.50;;
55537;SDS011;41383;51.418;7.286;2023-05-07T01:16:05;17.42;;;8.68;;
55537;SDS011;41383;51.418;7.286;2023-05-07T01:18:31;15.90;;;8.07;;
55537;SDS011;41383;51.418;7.286;2023-05-07T01:20:57;12.82;;;7.68;;
55537;SDS011;41383;51.418;7.286;2023-05-07T01:23:24;15.18;;;9.10;;
55537;SDS011;41383;51.418;7.286;2023-05-07T01:25:53;21.83;;;10.07;;
55537;SDS011;41383;51.418;7.286;2023-05-07T01:28:19;13.63;;;7.93;;
55537;SDS011;41383;51.418;7.286;2023-05-07T01:30:46;16.63;;;8.75;;
55537;SDS011;41383;51.418;7.286;2023-05-07T01:33:15;16.95;;;9.15;;
55537;SDS011;41383;51.418;7.286;2023-05-07T01:35:46;15.38;;;8.63;;
55537;SDS011;41383;51.418;7.286;2023-05-07T01:38:15;16.30;;;7.68;;
55537;SDS011;41383;51.418;7.286;2023-05-07T01:40:41;12.80;;;8.38;;
55537;SDS011;41383;51.418;7.286;2023-05-07T01:43:06;13.52;;;9.15;;
55537;SDS011;41383;51.418;7.286;2023-05-07T01:45:32;13.13;;;7.28;;
55537;SDS011;41383;51.418;7.286;2023-05-07T01:47:59;17.27;;;7.75;;
55537;SDS011;41383;51.418;7.286;2023-05-07T01:50:25;13.63;;;9.18;;
55537;SDS011;41383;51.418;7.286;2023-05-07T01:52:51;14.05;;;7.72;;
55537;SDS011;41383;51.418;7.286;2023-05-07T01:55:16;14.27;;;7.55;;
55537;SDS011;41383;51.418;7.286;2023-05-07T01:57:42;13.80;;;8.15;;
55537;SDS011;41383;51.418;7.286;2023-05-07T02:00:07;13.18;;;7.55;;
55537;SDS011;41383;51.418;7.286;2023-05-07T02:02:33;12.00;;;6.68;;
55537;SDS011;41383;51.418;7.286;2023-05-07T02:04:59;13.02;;;8.15;;
55537;SDS011;41383;51.418;7.286;2023-05-07T02:07:25;18.65;;;7.03;;
55537;SDS011;41383;51.418;7.286;2023-05-07T02:09:51;13.52;;;7.18;;
55537;SDS011;41383;51.418;7.286;2023-05-07T02:12:16;13.50;;;7.23;;
55537;SDS011;41383;51.418;7.286;2023-05-07T02:14:41;14.07;;;8.10;;
55537;SDS011;41383;51.418;7.286;2023-05-07T02:17:07;18.42;;;8.68;;
55537;SDS011;41383;51.418;7.286;2023-05-07T02:19:32;12.52;;;7.72;;
55537;SDS011;41383;51.418;7.286;2023-05-07T02:21:57;13.87;;;7.93;;
55537;SDS011;41383;51.418;7.286;2023-05-07T02:24:23;13.77;;;7.10;;
55537;SDS011;41383;51.418;7.286;2023-05-07T02:26:48;12.95;;;6.00;;
55537;SDS011;41383;51.418;7.286;2023-05-07T02:29:13;15.20;;;9.13;;
55537;SDS011;41383;51.418;7.286;2023-05-07T02:31:39;13.25;;;8.25;;
55537;SDS011;41383;51.418;7.286;2023-05-07T02:34:04;19.92;;;8.32;;
55537;SDS011;41383;51.418;7.286;2023-05-07T02:36:29;14.13;;;7.73;;
55537;SDS011;41383;51.418;7.286;2023-05-07T02:38:55;17.05;;;9.55;;
55537;SDS011;41383;51.418;7.286;2023-05-07T02:41:20;12.47;;;7.07;;
55537;SDS011;41383;51.418;7.286;2023-05-07T02:43:45;16.50;;;9.00;;
55537;SDS011;41383;51.418;7.286;2023-05-07T02:46:11;14.07;;;8.13;;
55537;SDS011;41383;51.418;7.286;2023-05-07T02:48:36;13.88;;;7.55;;
55537;SDS011;41383;51.418;7.286;2023-05-07T02:51:01;13.90;;;8.57;;
55537;SDS011;41383;51.418;7.286;2023-05-07T02:53:27;12.75;;;6.65;;
55537;SDS011;41383;51.418;7.286;2023-05-07T02:55:54;11.68;;;7.53;;
55537;SDS011;41383;51.418;7.286;2023-05-07T02:58:21;13.77;;;8.20;;
55537;SDS011;41383;51.418;7.286;2023-05-07T03:00:47;16.88;;;8.00;;
55537;SDS011;41383;51.418;7.286;2023-05-07T03:03:13;13.43;;;7.70;;
55537;SDS011;41383;51.418;7.286;2023-05-07T03:05:38;14.25;;;7.53;;
55537;SDS011;41383;51.418;7.286;2023-05-07T03:08:04;17.70;;;6.77;;
55537;SDS011;41383;51.418;7.286;2023-05-07T03:10:29;13.75;;;7.63;;
55537;SDS011;41383;51.418;7.286;2023-05-07T03:12:55;11.40;;;6.10;;
55537;SDS011;41383;51.418;7.286;2023-05-07T03:15:20;11.25;;;6.55;;
55537;SDS011;41383;51.418;7.286;2023-05-07T03:17:46;16.67;;;7.70;;
55537;SDS011;41383;51.418;7.286;2023-05-07T03:20:12;13.73;;;9.05;;
55537;SDS011;41383;51.418;7.286;2023-05-07T03:22:37;11.40;;;6.85;;
55537;SDS011;41383;51.418;7.286;2023-05-07T03:25:03;15.32;;;7.22;;
55537;SDS011;41383;51.418;7.286;2023-05-07T03:27:29;16.38;;;7.97;;
55537;SDS011;41383;51.418;7.286;2023-05-07T03:29:54;10.55;;;5.95;;
55537;SDS011;41383;51.418;7.286;2023-05-07T03:32:20;12.40;;;8.27;;
55537;SDS011;41383;51.418;7.286;2023-05-07T03:34:45;12.32;;;6.43;;
55537;SDS011;41383;51.418;7.286;2023-05-07T03:37:10;13.48;;;6.82;;
55537;SDS011;41383;51.418;7.286;2023-05-07T03:39:35;14.15;;;7.82;;
55537;SDS011;41383;51.418;7.286;2023-05-07T03:42:01;10.27;;;6.40;;
55537;SDS011;41383;51.418;7.286;2023-05-07T03:44:26;14.87;;;7.57;;
55537;SDS011;41383;51.418;7.286;2023-05-07T03:46:51;14.30;;;7.40;;
55537;SDS011;41383;51.418;7.286;2023-05-07T03:49:17;15.70;;;7.25;;
55537;SDS011;41383;51.418;7.286;2023-05-07T03:51:42;16.07;;;7.30;;
55537;SDS011;41383;51.418;7.286;2023-05-07T03:54:07;11.18;;;7.10;;
55537;SDS011;41383;51.418;7.286;2023-05-07T03:56:33;13.15;;;9.15;;
55537;SDS011;41383;51.418;7.286;2023-05-07T03:58:58;13.90;;;8.52;;
55537;SDS011;41383;51.418;7.286;2023-05-07T04:01:23;11.97;;;6.50;;
55537;SDS011;41383;51.418;7.286;2023-05-07T04:03:48;14.40;;;10.30;;
55537;SDS011;41383;51.418;7.286;2023-05-07T04:06:15;12.33;;;7.47;;
55537;SDS011;41383;51.418;7.286;2023-05-07T04:08:42;14.75;;;8.45;;
55537;SDS011;41383;51.418;7.286;2023-05-07T04:11:07;17.70;;;8.53;;
55537;SDS011;41383;51.418;7.286;2023-05-07T04:13:32;16.60;;;8.67;;
55537;SDS011;41383;51.418;7.286;2023-05-07T04:15:58;17.85;;;8.63;;
55537;SDS011;41383;51.418;7.286;2023-05-07T04:18:25;14.50;;;8.90;;
55537;SDS011;41383;51.418;7.286;2023-05-07T04:20:51;17.27;;;7.72;;
55537;SDS011;41383;51.418;7.286;2023-05-07T04:23:16;17.50;;;8.50;;
55537;SDS011;41383;51.418;7.286;2023-05-07T04:25:41;14.40;;;7.97;;
55537;SDS011;41383;51.418;7.286;2023-05-07T04:28:07;16.98;;;9.27;;
55537;SDS011;41383;51.418;7.286;2023-05-07T04:30:32;19.45;;;8.38;;
55537;SDS011;41383;51.418;7.286;2023-05-07T04:32:57;14.23;;;8.75;;
55537;SDS011;41383;51.418;7.286;2023-05-07T04:35:23;11.43;;;7.13;;
55537;SDS011;41383;51.418;7.286;2023-05-07T04:37:48;13.55;;;8.38;;
55537;SDS011;41383;51.418;7.286;2023-05-07T04:40:13;14.88;;;7.70;;
55537;SDS011;41383;51.418;7.286;2023-05-07T04:42:38;21.05;;;10.52;;
55537;SDS011;41383;51.418;7.286;2023-05-07T04:45:04;12.60;;;8.27;;
55537;SDS011;41383;51.418;7.286;2023-05-07T04:47:30;14.38;;;8.95;;
55537;SDS011;41383;51.418;7.286;2023-05-07T04:49:55;20.10;;;8.20;;
55537;SDS011;41383;51.418;7.286;2023-05-07T04:52:20;17.03;;;9.77;;
55537;SDS011;41383;51.418;7.286;2023-05-07T04:54:46;19.77;;;11.20;;
55537;SDS011;41383;51.418;7.286;2023-05-07T04:57:11;18.00;;;9.13;;
55537;SDS011;41383;51.418;7.286;2023-05-07T04:59:36;16.73;;;8.70;;
55537;SDS011;41383;51.418;7.286;2023-05-07T05:02:01;20.33;;;10.37;;
55537;SDS011;41383;51.418;7.286;2023-05-07T05:04:29;15.30;;;8.75;;
55537;SDS011;41383;51.418;7.286;2023-05-07T05:06:54;17.60;;;8.93;;
55537;SDS011;41383;51.418;7.286;2023-05-07T05:09:20;16.27;;;8.57;;
55537;SDS011;41383;51.418;7.286;2023-05-07T05:11:45;13.88;;;9.40;;
55537;SDS011;41383;51.418;7.286;2023-05-07T05:14:10;13.18;;;7.65;;
55537;SDS011;41383;51.418;7.286;2023-05-07T05:16:36;13.27;;;7.80;;
55537;SDS011;41383;51.418;7.286;2023-05-07T05:19:01;13.73;;;7.78;;
55537;SDS011;41383;51.418;7.286;2023-05-07T05:21:27;11.52;;;6.72;;
55537;SDS011;41383;51.418;7.286;2023-05-07T05:23:52;16.27;;;9.05;;
55537;SDS011;41383;51.418;7.286;2023-05-07T05:26:18;17.00;;;7.10;;
55537;SDS011;41383;51.418;7.286;2023-05-07T05:28:43;14.15;;;6.78;;
55537;SDS011;41383;51.418;7.286;2023-05-07T05:31:08;10.73;;;5.75;;
55537;SDS011;41383;51.418;7.286;2023-05-07T05:33:34;9.20;;;5.28;;
55537;SDS011;41383;51.418;7.286;2023-05-07T05:35:59;13.10;;;6.72;;
55537;SDS011;41383;51.418;7.286;2023-05-07T05:38:25;9.77;;;5.50;;
55537;SDS011;41383;51.418;7.286;2023-05-07T05:40:50;13.05;;;6.57;;
55537;SDS011;41383;51.418;7.286;2023-05-07T05:43:16;10.43;;;5.60;;
55537;SDS011;41383;51.418;7.286;2023-05-07T05:45:41;12.23;;;5.90;;
55537;SDS011;41383;51.418;7.286;2023-05-07T05:48:06;9.57;;;5.77;;
55537;SDS011;41383;51.418;7.286;2023-05-07T05:50:33;12.18;;;5.47;;
55537;SDS011;41383;51.418;7.286;2023-05-07T05:53:00;9.30;;;5.38;;
55537;SDS011;41383;51.418;7.286;2023-05-07T05:55:26;10.50;;;5.18;;
55537;SDS011;41383;51.418;7.286;2023-05-07T05:57:51;9.20;;;4.63;;
55537;SDS011;41383;51.418;7.286;2023-05-07T06:00:16;8.43;;;4.50;;
55537;SDS011;41383;51.418;7.286;2023-05-07T06:02:42;11.45;;;6.05;;
55537;SDS011;41383;51.418;7.286;2023-05-07T06:05:10;9.18;;;4.88;;
55537;SDS011;41383;51.418;7.286;2023-05-07T06:07:35;12.63;;;5.47;;
55537;SDS011;41383;51.418;7.286;2023-05-07T06:10:01;8.57;;;4.93;;
55537;SDS011;41383;51.418;7.286;2023-05-07T06:12:26;9.23;;;5.38;;
55537;SDS011;41383;51.418;7.286;2023-05-07T06:14:51;9.27;;;5.03;;
55537;SDS011;41383;51.418;7.286;2023-05-07T06:17:17;11.65;;;5.03;;
55537;SDS011;41383;51.418;7.286;2023-05-07T06:19:42;15.85;;;5.05;;
55537;SDS011;41383;51.418;7.286;2023-05-07T06:22:07;8.90;;;4.45;;
55537;SDS011;41383;51.418;7.286;2023-05-07T06:24:33;10.65;;;4.60;;
55537;SDS011;41383;51.418;7.286;2023-05-07T06:26:58;8.60;;;4.30;;
55537;SDS011;41383;51.418;7.286;2023-05-07T06:29:24;8.82;;;4.30;;
55537;SDS011;41383;51.418;7.286;2023-05-07T06:31:50;9.10;;;4.60;;
55537;SDS011;41383;51.418;7.286;2023-05-07T06:34:18;11.80;;;5.43;;
55537;SDS011;41383;51.418;7.286;2023-05-07T06:36:44;7.50;;;3.58;;
55537;SDS011;41383;51.418;7.286;2023-05-07T06:39:09;6.00;;;3.83;;
55537;SDS011;41383;51.418;7.286;2023-05-07T06:41:34;8.07;;;3.37;;
55537;SDS011;41383;51.418;7.286;2023-05-07T06:44:01;9.10;;;4.70;;
55537;SDS011;41383;51.418;7.286;2023-05-07T06:46:27;8.38;;;4.50;;
55537;SDS011;41383;51.418;7.286;2023-05-07T06:48:52;10.27;;;4.63;;
55537;SDS011;41383;51.418;7.286;2023-05-07T06:51:18;15.48;;;5.00;;
55537;SDS011;41383;51.418;7.286;2023-05-07T06:53:43;9.53;;;4.33;;
55537;SDS011;41383;51.418;7.286;2023-05-07T06:56:08;6.18;;;3.85;;
55537;SDS011;41383;51.418;7.286;2023-05-07T06:58:33;12.52;;;4.20;;
55537;SDS011;41383;51.418;7.286;2023-05-07T07:00:59;6.90;;;3.22;;
55537;SDS011;41383;51.418;7.286;2023-05-07T07:03:24;6.82;;;3.45;;
55537;SDS011;41383;51.418;7.286;2023-05-07T07:05:51;9.38;;;3.45;;
55537;SDS011;41383;51.418;7.286;2023-05-07T07:08:17;9.82;;;4.18;;
55537;SDS011;41383;51.418;7.286;2023-05-07T07:10:43;6.30;;;3.30;;
55537;SDS011;41383;51.418;7.286;2023-05-07T07:13:08;10.00;;;3.28;;
55537;SDS011;41383;51.418;7.286;2023-05-07T07:15:33;7.50;;;4.03;;
55537;SDS011;41383;51.418;7.286;2023-05-07T07:17:59;4.65;;;2.88;;
55537;SDS011;41383;51.418;7.286;2023-05-07T07:20:24;8.57;;;3.13;;
55537;SDS011;41383;51.418;7.286;2023-05-07T07:22:49;8.00;;;3.75;;
55537;SDS011;41383;51.418;7.286;2023-05-07T07:25:15;9.38;;;3.63;;
55537;SDS011;41383;51.418;7.286;2023-05-07T07:27:40;11.00;;;3.58;;
55537;SDS011;41383;51.418;7.286;2023-05-07T07:30:05;7.18;;;4.03;;
55537;SDS011;41383;51.418;7.286;2023-05-07T07:32:31;7.05;;;3.22;;
55537;SDS011;41383;51.418;7.286;2023-05-07T07:34:58;7.70;;;2.97;;
55537;SDS011;41383;51.418;7.286;2023-05-07T07:37:23;7.72;;;3.08;;
55537;SDS011;41383;51.418;7.286;2023-05-07T07:39:50;6.57;;;3.10;;
55537;SDS011;41383;51.418;7.286;2023-05-07T07:42:15;5.68;;;3.25;;
55537;SDS011;41383;51.418;7.286;2023-05-07T07:44:41;6.68;;;3.00;;
55537;SDS011;41383;51.418;7.286;2023-05-07T07:47:06;3.75;;;2.40;;
55537;SDS011;41383;51.418;7.286;2023-05-07T07:49:31;8.80;;;2.63;;
55537;SDS011;41383;51.418;7.286;2023-05-07T07:51:57;5.30;;;2.60;;
55537;SDS011;41383;51.418;7.286;2023-05-07T07:54:24;7.40;;;2.65;;
55537;SDS011;41383;51.418;7.286;2023-05-07T07:56:50;5.75;;;2.55;;
55537;SDS011;41383;51.418;7.286;2023-05-07T07:59:15;11.80;;;2.70;;
55537;SDS011;41383;51.418;7.286;2023-05-07T08:01:43;8.10;;;3.35;;
55537;SDS011;41383;51.418;7.286;2023-05-07T08:04:09;6.22;;;2.80;;
55537;SDS011;41383;51.418;7.286;2023-05-07T08:06:35;6.90;;;3.55;;
55537;SDS011;41383;51.418;7.286;2023-05-07T08:12:22;7.35;;;3.05;;
55537;SDS011;41383;51.418;7.286;2023-05-07T08:14:47;7.23;;;2.80;;
55537;SDS011;41383;51.418;7.286;2023-05-07T08:17:12;5.45;;;3.05;;
55537;SDS011;41383;51.418;7.286;2023-05-07T08:19:40;4.57;;;2.65;;
55537;SDS011;41383;51.418;7.286;2023-05-07T08:22:06;6.45;;;2.50;;
55537;SDS011;41383;51.418;7.286;2023-05-07T08:24:31;4.27;;;2.23;;
55537;SDS011;41383;51.418;7.286;2023-05-07T08:26:56;10.35;;;2.60;;
55537;SDS011;41383;51.418;7.286;2023-05-07T08:29:21;4.90;;;2.38;;
55537;SDS011;41383;51.418;7.286;2023-05-07T08:31:47;5.93;;;3.03;;
55537;SDS011;41383;51.418;7.286;2023-05-07T08:34:12;10.32;;;3.13;;
55537;SDS011;41383;51.418;7.286;2023-05-07T08:36:38;6.80;;;2.50;;
55537;SDS011;41383;51.418;7.286;2023-05-07T08:39:03;9.20;;;3.83;;
55537;SDS011;41383;51.418;7.286;2023-05-07T08:41:28;7.90;;;3.97;;
55537;SDS011;41383;51.418;7.286;2023-05-07T08:43:54;9.68;;;3.65;;
55537;SDS011;41383;51.418;7.286;2023-05-07T08:46:24;7.10;;;3.38;;
55537;SDS011;41383;51.418;7.286;2023-05-07T08:48:51;5.95;;;2.45;;
55537;SDS011;41383;51.418;7.286;2023-05-07T08:51:20;6.72;;;3.45;;
55537;SDS011;41383;51.418;7.286;2023-05-07T08:53:46;5.97;;;3.00;;
55537;SDS011;41383;51.418;7.286;2023-05-07T08:56:16;13.57;;;3.17;;
55537;SDS011;41383;51.418;7.286;2023-05-07T08:58:42;5.85;;;2.28;;
55537;SDS011;41383;51.418;7.286;2023-05-07T09:01:09;12.60;;;3.55;;
55537;SDS011;41383;51.418;7.286;2023-05-07T09:03:37;9.35;;;3.25;;
55537;SDS011;41383;51.418;7.286;2023-05-07T09:06:04;5.53;;;2.65;;
55537;SDS011;41383;51.418;7.286;2023-05-07T09:08:29;7.53;;;3.53;;
55537;SDS011;41383;51.418;7.286;2023-05-07T09:10:55;6.68;;;3.10;;
55537;SDS011;41383;51.418;7.286;2023-05-07T09:13:20;6.35;;;3.40;;
55537;SDS011;41383;51.418;7.286;2023-05-07T09:15:46;7.95;;;2.90;;
55537;SDS011;41383;51.418;7.286;2023-05-07T09:18:14;5.55;;;2.92;;
55537;SDS011;41383;51.418;7.286;2023-05-07T09:20:40;5.78;;;2.70;;
55537;SDS011;41383;51.418;7.286;2023-05-07T09:23:05;6.28;;;2.65;;
55537;SDS011;41383;51.418;7.286;2023-05-07T09:25:32;6.18;;;2.75;;
55537;SDS011;41383;51.418;7.286;2023-05-07T09:27:59;5.75;;;3.17;;
55537;SDS011;41383;51.418;7.286;2023-05-07T09:30:28;4.95;;;2.45;;
55537;SDS011;41383;51.418;7.286;2023-05-07T09:32:54;6.50;;;2.40;;
55537;SDS011;41383;51.418;7.286;2023-05-07T09:35:20;7.28;;;2.03;;
55537;SDS011;41383;51.418;7.286;2023-05-07T09:37:55;6.07;;;1.50;;
55537;SDS011;41383;51.418;7.286;2023-05-07T09:40:22;4.40;;;2.17;;
55537;SDS011;41383;51.418;7.286;2023-05-07T09:42:48;6.03;;;2.92;;
55537;SDS011;41383;51.418;7.286;2023-05-07T09:45:14;7.65;;;2.97;;
55537;SDS011;41383;51.418;7.286;2023-05-07T09:47:40;6.45;;;2.25;;
55537;SDS011;41383;51.418;7.286;2023-05-07T09:50:09;5.47;;;2.35;;
55537;SDS011;41383;51.418;7.286;2023-05-07T09:52:37;4.93;;;2.10;;
55537;SDS011;41383;51.418;7.286;2023-05-07T09:55:05;3.88;;;2.13;;
55537;SDS011;41383;51.418;7.286;2023-05-07T09:57:31;5.07;;;2.45;;
55537;SDS011;41383;51.418;7.286;2023-05-07T09:59:58;5.38;;;1.98;;
55537;SDS011;41383;51.418;7.286;2023-05-07T10:02:25;5.57;;;1.63;;
55537;SDS011;41383;51.418;7.286;2023-05-07T10:04:55;3.20;;;1.67;;
55537;SDS011;41383;51.418;7.286;2023-05-07T10:07:21;7.93;;;3.17;;
55537;SDS011;41383;51.418;7.286;2023-05-07T10:09:46;5.85;;;3.45;;
55537;SDS011;41383;51.418;7.286;2023-05-07T10:12:12;7.43;;;3.42;;
55537;SDS011;41383;51.418;7.286;2023-05-07T10:14:38;8.00;;;3.88;;
55537;SDS011;41383;51.418;7.286;2023-05-07T10:17:03;6.53;;;3.38;;
55537;SDS011;41383;51.418;7.286;2023-05-07T10:19:29;8.82;;;3.90;;
55537;SDS011;41383;51.418;7.286;2023-05-07T10:21:56;8.63;;;3.92;;
55537;SDS011;41383;51.418;7.286;2023-05-07T10:24:27;10.27;;;4.15;;
55537;SDS011;41383;51.418;7.286;2023-05-07T10:26:56;9.30;;;4.93;;
55537;SDS011;41383;51.418;7.286;2023-05-07T10:34:50;8.63;;;4.10;;
55537;SDS011;41383;51.418;7.286;2023-05-07T10:37:20;8.50;;;4.38;;
55537;SDS011;41383;51.418;7.286;2023-05-07T10:39:45;7.55;;;2.90;;
55537;SDS011;41383;51.418;7.286;2023-05-07T10:42:11;10.07;;;4.70;;
55537;SDS011;41383;51.418;7.286;2023-05-07T10:44:38;7.22;;;3.70;;
55537;SDS011;41383;51.418;7.286;2023-05-07T10:47:04;12.18;;;4.38;;
55537;SDS011;41383;51.418;7.286;2023-05-07T10:49:31;9.00;;;4.80;;
55537;SDS011;41383;51.418;7.286;2023-05-07T10:54:41;8.98;;;3.75;;
55537;SDS011;41383;51.418;7.286;2023-05-07T10:59:58;9.60;;;4.93;;
55537;SDS011;41383;51.418;7.286;2023-05-07T11:02:38;8.93;;;4.30;;
55537;SDS011;41383;51.418;7.286;2023-05-07T11:05:25;9.93;;;4.15;;
55537;SDS011;41383;51.418;7.286;2023-05-07T11:07:58;5.97;;;3.78;;
55537;SDS011;41383;51.418;7.286;2023-05-07T11:13:16;7.43;;;3.70;;
55537;SDS011;41383;51.418;7.286;2023-05-07T11:15:46;6.60;;;3.85;;
55537;SDS011;41383;51.418;7.286;2023-05-07T11:18:13;7.80;;;3.50;;
55537;SDS011;41383;51.418;7.286;2023-05-07T11:20:46;8.52;;;3.42;;
55537;SDS011;41383;51.418;7.286;2023-05-07T11:26:07;7.30;;;3.95;;
55537;SDS011;41383;51.418;7.286;2023-05-07T11:28:37;9.68;;;3.08;;
55537;SDS011;41383;51.418;7.286;2023-05-07T11:31:03;7.22;;;2.60;;
55537;SDS011;41383;51.418;7.286;2023-05-07T11:33:32;7.78;;;3.95;;
55537;SDS011;41383;51.418;7.286;2023-05-07T11:35:59;6.90;;;3.25;;
55537;SDS011;41383;51.418;7.286;2023-05-07T11:38:25;6.20;;;3.13;;
55537;SDS011;41383;51.418;7.286;2023-05-07T11:43:23;10.50;;;5.07;;
55537;SDS011;41383;51.418;7.286;2023-05-07T11:45:49;5.50;;;2.72;;
55537;SDS011;41383;51.418;7.286;2023-05-07T11:48:15;6.88;;;3.58;;
55537;SDS011;41383;51.418;7.286;2023-05-07T11:51:00;6.32;;;3.67;;
55537;SDS011;41383;51.418;7.286;2023-05-07T11:53:26;15.10;;;5.45;;
55537;SDS011;41383;51.418;7.286;2023-05-07T11:55:52;8.52;;;4.63;;
55537;SDS011;41383;51.418;7.286;2023-05-07T11:58:24;8.75;;;4.63;;
55537;SDS011;41383;51.418;7.286;2023-05-07T12:00:53;9.35;;;4.63;;
55537;SDS011;41383;51.418;7.286;2023-05-07T12:03:19;8.80;;;4.97;;
55537;SDS011;41383;51.418;7.286;2023-05-07T12:05:46;8.95;;;5.10;;
55537;SDS011;41383;51.418;7.286;2023-05-07T12:08:15;10.27;;;5.10;;
55537;SDS011;41383;51.418;7.286;2023-05-07T12:10:41;13.43;;;6.30;;
55537;SDS011;41383;51.418;7.286;2023-05-07T12:13:14;9.70;;;5.22;;
55537;SDS011;41383;51.418;7.286;2023-05-07T12:15:41;11.43;;;5.43;;
55537;SDS011;41383;51.418;7.286;2023-05-07T12:18:07;14.13;;;4.28;;
55537;SDS011;41383;51.418;7.286;2023-05-07T12:20:33;12.32;;;5.55;;
55537;SDS011;41383;51.418;7.286;2023-05-07T12:23:00;11.07;;;5.90;;
55537;SDS011;41383;51.418;7.286;2023-05-07T12:25:26;9.68;;;4.68;;
55537;SDS011;41383;51.418;7.286;2023-05-07T12:27:52;14.48;;;6.05;;
55537;SDS011;41383;51.418;7.286;2023-05-07T12:30:18;11.95;;;4.53;;
55537;SDS011;41383;51.418;7.286;2023-05-07T12:32:44;11.68;;;5.03;;
55537;SDS011;41383;51.418;7.286;2023-05-07T12:35:10;8.07;;;4.90;;
55537;SDS011;41383;51.418;7.286;2023-05-07T12:37:35;8.40;;;4.80;;
55537;SDS011;41383;51.418;7.286;2023-05-07T12:40:04;9.20;;;5.13;;
55537;SDS011;41383;51.418;7.286;2023-05-07T12:42:38;11.25;;;5.55;;
55537;SDS011;41383;51.418;7.286;2023-05-07T12:45:15;12.75;;;5.65;;
55537;SDS011;41383;51.418;7.286;2023-05-07T12:47:46;10.73;;;5.03;;
55537;SDS011;41383;51.418;7.286;2023-05-07T12:50:15;9.88;;;5.45;;
55537;SDS011;41383;51.418;7.286;2023-05-07T12:52:40;11.88;;;5.38;;
55537;SDS011;41383;51.418;7.286;2023-05-07T12:55:07;9.52;;;4.95;;
55537;SDS011;41383;51.418;7.286;2023-05-07T12:57:43;8.38;;;4.53;;
55537;SDS011;41383;51.418;7.286;2023-05-07T13:00:13;10.60;;;5.72;;
55537;SDS011;41383;51.418;7.286;2023-05-07T13:02:39;8.65;;;4.38;;
55537;SDS011;41383;51.418;7.286;2023-05-07T13:05:05;10.68;;;4.65;;
55537;SDS011;41383;51.418;7.286;2023-05-07T13:07:31;9.02;;;4.47;;
55537;SDS011;41383;51.418;7.286;2023-05-07T13:09:56;10.13;;;4.37;;
55537;SDS011;41383;51.418;7.286;2023-05-07T13:12:21;10.33;;;5.30;;
55537;SDS011;41383;51.418;7.286;2023-05-07T13:14:47;9.60;;;4.97;;
55537;SDS011;41383;51.418;7.286;2023-05-07T13:17:12;9.83;;;4.80;;
55537;SDS011;41383;51.418;7.286;2023-05-07T13:19:37;10.80;;;5.73;;
55537;SDS011;41383;51.418;7.286;2023-05-07T13:22:03;9.70;;;4.82;;
55537;SDS011;41383;51.418;7.286;2023-05-07T13:24:28;11.52;;;4.75;;
55537;SDS011;41383;51.418;7.286;2023-05-07T13:26:54;9.50;;;5.30;;
55537;SDS011;41383;51.418;7.286;2023-05-07T13:29:19;7.05;;;4.22;;
55537;SDS011;41383;51.418;7.286;2023-05-07T13:31:46;8.55;;;4.53;;
55537;SDS011;41383;51.418;7.286;2023-05-07T13:34:11;9.37;;;4.73;;
55537;SDS011;41383;51.418;7.286;2023-05-07T13:36:36;11.40;;;4.80;;
55537;SDS011;41383;51.418;7.286;2023-05-07T13:39:04;12.95;;;5.07;;
55537;SDS011;41383;51.418;7.286;2023-05-07T13:41:31;13.40;;;4.65;;
55537;SDS011;41383;51.418;7.286;2023-05-07T13:43:56;9.55;;;4.32;;
55537;SDS011;41383;51.418;7.286;2023-05-07T13:46:21;12.35;;;5.78;;
55537;SDS011;41383;51.418;7.286;2023-05-07T13:48:47;10.00;;;5.68;;
55537;SDS011;41383;51.418;7.286;2023-05-07T13:51:12;14.47;;;5.97;;
55537;SDS011;41383;51.418;7.286;2023-05-07T13:53:37;10.10;;;5.40;;
55537;SDS011;41383;51.418;7.286;2023-05-07T13:56:03;12.20;;;5.37;;
55537;SDS011;41383;51.418;7.286;2023-05-07T13:58:29;11.82;;;5.40;;
55537;SDS011;41383;51.418;7.286;2023-05-07T14:00:55;12.23;;;5.50;;
55537;SDS011;41383;51.418;7.286;2023-05-07T14:03:20;10.77;;;6.18;;
55537;SDS011;41383;51.418;7.286;2023-05-07T14:05:45;12.60;;;5.93;;
55537;SDS011;41383;51.418;7.286;2023-05-07T14:08:11;14.30;;;7.70;;
55537;SDS011;41383;51.418;7.286;2023-05-07T14:10:38;11.02;;;5.90;;
55537;SDS011;41383;51.418;7.286;2023-05-07T14:13:04;11.43;;;6.22;;
55537;SDS011;41383;51.418;7.286;2023-05-07T14:15:29;15.25;;;8.10;;
55537;SDS011;41383;51.418;7.286;2023-05-07T14:17:55;10.73;;;6.32;;
55537;SDS011;41383;51.418;7.286;2023-05-07T14:20:20;11.68;;;6.13;;
55537;SDS011;41383;51.418;7.286;2023-05-07T14:22:45;9.80;;;5.57;;
55537;SDS011;41383;51.418;7.286;2023-05-07T14:25:10;12.25;;;6.13;;
55537;SDS011;41383;51.418;7.286;2023-05-07T14:27:36;9.80;;;5.75;;
55537;SDS011;41383;51.418;7.286;2023-05-07T14:30:01;13.80;;;6.20;;
55537;SDS011;41383;51.418;7.286;2023-05-07T14:32:27;12.00;;;5.85;;
55537;SDS011;41383;51.418;7.286;2023-05-07T14:34:52;13.48;;;7.00;;
55537;SDS011;41383;51.418;7.286;2023-05-07T14:37:17;12.48;;;6.68;;
55537;SDS011;41383;51.418;7.286;2023-05-07T14:39:44;12.82;;;6.95;;
55537;SDS011;41383;51.418;7.286;2023-05-07T14:42:10;12.20;;;6.45;;
55537;SDS011;41383;51.418;7.286;2023-05-07T14:44:37;11.43;;;5.85;;
55537;SDS011;41383;51.418;7.286;2023-05-07T14:47:05;12.52;;;6.63;;
55537;SDS011;41383;51.418;7.286;2023-05-07T14:49:30;14.25;;;7.63;;
55537;SDS011;41383;51.418;7.286;2023-05-07T14:51:57;16.47;;;8.13;;
55537;SDS011;41383;51.418;7.286;2023-05-07T14:54:23;11.82;;;7.10;;
55537;SDS011;41383;51.418;7.286;2023-05-07T14:56:48;11.67;;;6.83;;